createdAt,value
2019-06-15T00:00:23.157Z,61.49
2019-06-15T00:01:23.128Z,61.58
2019-06-15T00:02:23.104Z,61.69
2019-06-15T00:03:23.093Z,61.79
2019-06-15T00:04:23.113Z,61.39
2019-06-15T00:05:23.097Z,61.39
2019-06-15T00:06:23.084Z,61.39
2019-06-15T00:07:23.076Z,61.49
2019-06-15T00:08:23.040Z,61.39
2019-06-15T00:09:23.629Z,61.39
2019-06-15T00:10:23.184Z,61.39
2019-06-15T00:11:23.010Z,62.59
2019-06-15T00:12:23.007Z,62.59
2019-06-15T00:13:23.010Z,62.29
2019-06-15T00:14:22.977Z,62.38
2019-06-15T00:15:23.032Z,62.81
2019-06-15T00:16:23.166Z,62.61
2019-06-15T00:17:22.955Z,62.51
2019-06-15T00:18:22.944Z,63.01
2019-06-15T00:19:22.978Z,62.88
2019-06-15T00:20:22.915Z,62.91
2019-06-15T00:21:22.953Z,63.08
2019-06-15T00:22:22.894Z,62.81
2019-06-15T00:23:22.888Z,62.71
2019-06-15T00:24:34.619Z,62.91
2019-06-15T00:25:22.896Z,63.11
2019-06-15T00:26:22.848Z,63.11
2019-06-15T00:27:22.853Z,62.71
2019-06-15T00:28:22.852Z,62.81
2019-06-15T00:29:22.820Z,62.81
2019-06-15T00:30:22.808Z,63.31
2019-06-15T00:31:22.792Z,63.41
2019-06-15T00:32:22.874Z,63.41
2019-06-15T00:33:22.771Z,63.31
2019-06-15T00:34:22.770Z,63.11
2019-06-15T00:35:22.753Z,63.61
2019-06-15T00:36:22.751Z,63.41
2019-06-15T00:37:22.773Z,63.61
2019-06-15T00:38:22.739Z,63.81
2019-06-15T00:39:22.708Z,63.91
2019-06-15T00:40:22.712Z,64.81
2019-06-15T00:41:22.694Z,65.11
2019-06-15T00:42:22.690Z,65.94
2019-06-15T00:43:22.725Z,66.53
2019-06-15T00:44:22.664Z,67.13
2019-06-15T00:45:22.639Z,67.07
2019-06-15T00:46:22.628Z,67.26
2019-06-15T00:47:22.629Z,67.26
2019-06-15T00:48:22.666Z,67.36
2019-06-15T00:49:22.601Z,67.86
2019-06-15T00:50:22.604Z,67.96
2019-06-15T00:51:22.578Z,68.36
2019-06-15T00:52:22.564Z,68.56
2019-06-15T00:53:22.600Z,69.16
2019-06-15T00:54:22.542Z,68.56
2019-06-15T00:55:22.534Z,68.86
2019-06-15T00:56:22.541Z,69.16
2019-06-15T00:57:22.519Z,69.06
2019-06-15T00:58:22.503Z,69.56
2019-06-15T00:59:22.510Z,68.96
2019-06-15T01:00:22.476Z,69.06
2019-06-15T01:01:22.466Z,68.76
2019-06-15T01:02:22.471Z,69.46
2019-06-15T01:03:22.454Z,68.76
2019-06-15T01:04:22.476Z,68.66
2019-06-15T01:05:22.442Z,68.96
2019-06-15T01:06:22.414Z,68.56
2019-06-15T01:07:22.400Z,69.06
2019-06-15T01:08:22.415Z,69.16
2019-06-15T01:09:22.424Z,68.96
2019-06-15T01:10:22.373Z,68.96
2019-06-15T01:11:22.369Z,69.06
2019-06-15T01:12:22.348Z,69.46
2019-06-15T01:13:22.335Z,69.56
2019-06-15T01:14:22.333Z,69.86
2019-06-15T01:15:22.339Z,69.96
2019-06-15T01:16:22.318Z,70.56
2019-06-15T01:17:22.316Z,70.65
2019-06-15T01:18:22.280Z,70.95
2019-06-15T01:19:22.271Z,71.26
2019-06-15T01:20:22.344Z,71.26
2019-06-15T01:21:22.252Z,70.65
2019-06-15T01:22:22.254Z,71.36
2019-06-15T01:23:22.244Z,71.36
2019-06-15T01:24:22.224Z,71.86
2019-06-15T01:25:22.225Z,72.45
2019-06-15T01:26:22.650Z,72.09
2019-06-15T01:27:22.184Z,72.16
2019-06-15T01:28:22.189Z,72.75
2019-06-15T01:29:22.161Z,73.55
2019-06-15T01:30:22.151Z,73.45
2019-06-15T01:31:22.208Z,73.65
2019-06-15T01:32:22.160Z,73.65
2019-06-15T01:33:22.120Z,73.35
2019-06-15T01:34:22.118Z,73.65
2019-06-15T01:35:22.097Z,74.25
2019-06-15T01:36:22.141Z,73.75
2019-06-15T01:37:22.079Z,73.65
2019-06-15T01:38:22.088Z,73.75
2019-06-15T01:39:22.060Z,73.82
2019-06-15T01:40:22.058Z,74.25
2019-06-15T01:41:22.033Z,74.25
2019-06-15T01:42:22.039Z,74.25
2019-06-15T01:43:22.011Z,74.35
2019-06-15T01:44:22.033Z,74.55
2019-06-15T01:45:21.997Z,74.05
2019-06-15T01:46:21.990Z,74.32
2019-06-15T01:47:22.016Z,74.51
2019-06-15T01:48:21.960Z,74.11
2019-06-15T01:49:21.948Z,74.02
2019-06-15T01:50:21.954Z,74.38
2019-06-15T01:51:21.932Z,74.41
2019-06-15T01:52:21.930Z,74.02
2019-06-15T01:53:21.949Z,74.48
2019-06-15T01:54:21.891Z,74.98
2019-06-15T01:55:21.884Z,74.08
2019-06-15T01:56:21.892Z,74.38
2019-06-15T01:57:21.870Z,73.98
2019-06-15T01:58:21.902Z,73.78
2019-06-15T01:59:21.836Z,73.68
2019-06-15T02:00:21.825Z,73.55
2019-06-15T02:01:22.619Z,73.65
2019-06-15T02:02:21.807Z,73.85
2019-06-15T02:03:21.829Z,73.25
2019-06-15T02:04:21.814Z,73.65
2019-06-15T02:05:21.774Z,73.44
2019-06-15T02:06:21.761Z,73.35
2019-06-15T02:07:21.767Z,73.35
2019-06-15T02:08:21.746Z,73.35
2019-06-15T02:09:21.823Z,73.11
2019-06-15T02:10:21.717Z,73.55
2019-06-15T02:11:21.712Z,73.35
2019-06-15T02:12:21.700Z,73.25
2019-06-15T02:13:21.702Z,73.41
2019-06-15T02:14:21.684Z,73.25
2019-06-15T02:15:21.737Z,73.44
2019-06-15T02:16:21.657Z,73.61
2019-06-15T02:17:21.640Z,73.41
2019-06-15T02:18:21.651Z,72.71
2019-06-15T02:19:21.621Z,72.71
2019-06-15T02:20:21.660Z,72.41
2019-06-15T02:21:21.643Z,72.41
2019-06-15T02:22:21.589Z,72.61
2019-06-15T02:23:21.576Z,72.02
2019-06-15T02:24:21.573Z,72.22
2019-06-15T02:25:34.865Z,72.31
2019-06-15T02:26:21.568Z,71.92
2019-06-15T02:27:21.566Z,72.31
2019-06-15T02:28:21.521Z,71.81
2019-06-15T02:29:21.515Z,72.11
2019-06-15T02:30:21.517Z,72.11
2019-06-15T02:31:21.532Z,72.11
2019-06-15T02:32:21.493Z,72.11
2019-06-15T02:33:21.504Z,71.92
2019-06-15T02:34:21.455Z,72.11
2019-06-15T02:35:21.446Z,71.81
2019-06-15T02:36:21.435Z,72.02
2019-06-15T02:37:21.469Z,71.81
2019-06-15T02:38:21.437Z,72.11
2019-06-15T02:39:21.441Z,71.81
2019-06-15T02:40:21.392Z,71.62
2019-06-15T02:41:21.381Z,72.25
2019-06-15T02:42:21.413Z,71.75
2019-06-15T02:43:21.368Z,71.95
2019-06-15T02:44:21.365Z,72.35
2019-06-15T02:45:21.387Z,71.95
2019-06-15T02:46:21.326Z,72.15
2019-06-15T02:47:21.322Z,71.85
2019-06-15T02:48:21.333Z,71.65
2019-06-15T02:49:21.326Z,71.75
2019-06-15T02:50:21.283Z,72.15
2019-06-15T02:51:21.295Z,71.65
2019-06-15T02:52:21.263Z,72.25
2019-06-15T02:53:21.293Z,72.25
2019-06-15T02:54:21.239Z,72.25
2019-06-15T02:55:21.237Z,72.05
2019-06-15T02:56:21.233Z,72.15
2019-06-15T02:57:21.226Z,72.28
2019-06-15T02:58:21.199Z,72.38
2019-06-15T02:59:21.208Z,72.28
2019-06-15T03:00:21.179Z,72.28
2019-06-15T03:01:21.173Z,72.08
2019-06-15T03:02:21.152Z,72.38
2019-06-15T03:03:21.164Z,72.49
2019-06-15T03:04:21.194Z,72.68
2019-06-15T03:05:21.122Z,72.78
2019-06-15T03:06:21.119Z,72.68
2019-06-15T03:07:21.110Z,72.38
2019-06-15T03:08:21.090Z,72.58
2019-06-15T03:09:21.138Z,72.49
2019-06-15T03:10:21.095Z,72.52
2019-06-15T03:11:21.054Z,72.49
2019-06-15T03:12:21.054Z,72.81
2019-06-15T03:13:21.063Z,72.58
2019-06-15T03:14:21.029Z,72.49
2019-06-15T03:15:21.090Z,72.81
2019-06-15T03:16:21.010Z,72.78
2019-06-15T03:17:20.990Z,72.78
2019-06-15T03:18:20.993Z,72.78
2019-06-15T03:19:20.967Z,73.61
2019-06-15T03:20:20.965Z,73.52
2019-06-15T03:21:20.980Z,73.22
2019-06-15T03:22:20.956Z,73.42
2019-06-15T03:23:20.928Z,73.32
2019-06-15T03:24:20.927Z,73.52
2019-06-15T03:25:20.902Z,73.52
2019-06-15T03:26:20.911Z,73.52
2019-06-15T03:27:20.920Z,73.42
2019-06-15T03:28:20.880Z,73.52
2019-06-15T03:29:20.861Z,73.72
2019-06-15T03:30:20.859Z,73.72
2019-06-15T03:31:20.881Z,73.61
2019-06-15T03:32:20.829Z,73.02
2019-06-15T03:33:20.836Z,72.81
2019-06-15T03:34:20.805Z,73.02
2019-06-15T03:35:20.803Z,72.92
2019-06-15T03:36:20.795Z,72.72
2019-06-15T03:37:20.805Z,73.72
2019-06-15T03:38:20.812Z,72.81
2019-06-15T03:39:20.751Z,72.52
2019-06-15T03:40:20.743Z,72.92
2019-06-15T03:41:20.747Z,72.92
2019-06-15T03:42:20.775Z,72.62
2019-06-15T03:43:20.744Z,73.61
2019-06-15T03:44:20.697Z,73.61
2019-06-15T03:45:20.761Z,73.61
2019-06-15T03:46:20.673Z,72.92
2019-06-15T03:47:20.676Z,73.42
2019-06-15T03:48:20.682Z,73.55
2019-06-15T03:49:20.657Z,73.11
2019-06-15T03:50:20.690Z,73.55
2019-06-15T03:51:20.633Z,73.61
2019-06-15T03:52:20.608Z,73.55
2019-06-15T03:53:20.703Z,73.45
2019-06-15T03:54:20.586Z,73.55
2019-06-15T03:55:20.576Z,73.45
2019-06-15T03:56:22.211Z,73.65
2019-06-15T03:57:20.590Z,73.65
2019-06-15T03:58:20.574Z,73.45
2019-06-15T03:59:20.541Z,73.45
2019-06-15T04:00:20.520Z,73.35
2019-06-15T04:01:20.554Z,73.45
2019-06-15T04:02:20.521Z,73.69
2019-06-15T04:03:20.507Z,73.69
2019-06-15T04:04:20.483Z,73.65
2019-06-15T04:05:20.484Z,73.58
2019-06-15T04:06:20.502Z,73.75
2019-06-15T04:07:20.445Z,73.95
2019-06-15T04:08:20.454Z,73.75
2019-06-15T04:09:20.423Z,73.69
2019-06-15T04:10:20.422Z,74.25
2019-06-15T04:11:20.463Z,74.05
2019-06-15T04:12:20.389Z,73.55
2019-06-15T04:13:20.380Z,74.15
2019-06-15T04:14:20.377Z,73.88
2019-06-15T04:15:20.380Z,73.95
2019-06-15T04:16:20.362Z,74.15
2019-06-15T04:17:20.363Z,74.15
2019-06-15T04:18:20.326Z,74.29
2019-06-15T04:19:20.314Z,74.05
2019-06-15T04:20:20.319Z,74.08
2019-06-15T04:21:20.318Z,74.45
2019-06-15T04:22:20.337Z,74.55
2019-06-15T04:23:20.271Z,74.58
2019-06-15T04:24:20.261Z,74.79
2019-06-15T04:25:20.249Z,74.49
2019-06-15T04:26:20.258Z,74.45
2019-06-15T04:27:20.284Z,74.88
2019-06-15T04:28:20.239Z,74.79
2019-06-15T04:29:20.206Z,74.45
2019-06-15T04:30:20.196Z,74.65
2019-06-15T04:31:20.184Z,74.65
2019-06-15T04:32:20.202Z,74.95
2019-06-15T04:33:20.241Z,74.55
2019-06-15T04:34:20.169Z,74.58
2019-06-15T04:35:20.140Z,74.85
2019-06-15T04:36:20.128Z,74.85
2019-06-15T04:37:20.120Z,74.85
2019-06-15T04:38:20.116Z,74.65
2019-06-15T04:39:20.143Z,74.15
2019-06-15T04:40:20.085Z,74.41
2019-06-15T04:41:20.082Z,74.05
2019-06-15T04:42:20.068Z,74.11
2019-06-15T04:43:20.062Z,73.82
2019-06-15T04:44:20.086Z,74.32
2019-06-15T04:45:20.036Z,73.61
2019-06-15T04:46:20.055Z,74.02
2019-06-15T04:47:20.020Z,73.72
2019-06-15T04:48:20.008Z,74.02
2019-06-15T04:49:20.004Z,74.11
2019-06-15T04:50:20.014Z,74.51
2019-06-15T04:51:19.974Z,74.21
2019-06-15T04:52:19.985Z,74.02
2019-06-15T04:53:19.944Z,74.55
2019-06-15T04:54:19.933Z,74.62
2019-06-15T04:55:19.966Z,74.81
2019-06-15T04:56:19.916Z,74.51
2019-06-15T04:57:19.918Z,74.62
2019-06-15T04:58:19.926Z,74.81
2019-06-15T04:59:19.883Z,74.71
2019-06-15T05:00:19.907Z,75.55
2019-06-15T05:01:19.882Z,75.11
2019-06-15T05:02:19.867Z,74.95
2019-06-15T05:03:19.856Z,74.95
2019-06-15T05:04:19.867Z,75.35
2019-06-15T05:05:19.816Z,75.55
2019-06-15T05:06:19.872Z,75.65
2019-06-15T05:07:19.791Z,74.95
2019-06-15T05:08:19.795Z,74.95
2019-06-15T05:09:19.787Z,75.55
2019-06-15T05:10:19.760Z,75.25
2019-06-15T05:11:19.773Z,75.74
2019-06-15T05:12:19.754Z,76.04
2019-06-15T05:13:19.727Z,75.95
2019-06-15T05:14:19.725Z,76.15
2019-06-15T05:15:19.711Z,76.25
2019-06-15T05:16:19.694Z,75.95
2019-06-15T05:17:19.774Z,75.95
2019-06-15T05:18:19.690Z,75.55
2019-06-15T05:19:19.664Z,75.91
2019-06-15T05:20:19.665Z,75.65
2019-06-15T05:21:19.640Z,75.81
2019-06-15T05:22:19.684Z,75.65
2019-06-15T05:23:19.651Z,75.31
2019-06-15T05:24:19.620Z,75.61
2019-06-15T05:25:19.603Z,75.71
2019-06-15T05:26:19.608Z,75.61
2019-06-15T05:27:19.573Z,76.11
2019-06-15T05:28:19.582Z,76.31
2019-06-15T05:29:19.570Z,75.81
2019-06-15T05:30:19.556Z,76.11
2019-06-15T05:31:19.542Z,75.27
2019-06-15T05:32:19.534Z,75.48
2019-06-15T05:33:19.559Z,75.57
2019-06-15T05:34:19.499Z,75.07
2019-06-15T05:35:19.512Z,75.57
2019-06-15T05:36:19.491Z,75.18
2019-06-15T05:37:19.505Z,75.37
2019-06-15T05:38:19.472Z,75.48
2019-06-15T05:39:19.481Z,75.67
2019-06-15T05:40:19.432Z,74.68
2019-06-15T05:41:19.450Z,75.27
2019-06-15T05:42:19.410Z,75.87
2019-06-15T05:43:19.414Z,75.37
2019-06-15T05:44:19.444Z,75.67
2019-06-15T05:45:19.459Z,75.37
2019-06-15T05:46:19.368Z,75.48
2019-06-15T05:47:19.367Z,75.78
2019-06-15T05:48:19.370Z,75.67
2019-06-15T05:49:19.391Z,75.67
2019-06-15T05:50:19.324Z,75.67
2019-06-15T05:51:19.317Z,76.17
2019-06-15T05:52:19.302Z,75.78
2019-06-15T05:53:19.326Z,75.78
2019-06-15T05:54:19.309Z,75.48
2019-06-15T05:55:19.342Z,75.48
2019-06-15T05:56:19.263Z,75.48
2019-06-15T05:57:21.890Z,76.27
2019-06-15T05:58:19.240Z,75.67
2019-06-15T05:59:19.228Z,75.54
2019-06-15T06:00:19.282Z,75.54
2019-06-15T06:01:19.220Z,75.54
2019-06-15T06:02:21.681Z,75.64
2019-06-15T06:03:19.185Z,75.44
2019-06-15T06:04:19.180Z,75.20
2019-06-15T06:05:19.212Z,75.31
2019-06-15T06:06:19.187Z,74.77
2019-06-15T06:07:19.158Z,74.67
2019-06-15T06:08:19.163Z,74.57
2019-06-15T06:09:19.121Z,74.77
2019-06-15T06:10:19.541Z,73.77
2019-06-15T06:11:19.105Z,74.47
2019-06-15T06:12:19.115Z,73.28
2019-06-15T06:13:19.075Z,73.97
2019-06-15T06:14:19.066Z,73.77
2019-06-15T06:15:19.073Z,74.07
2019-06-15T06:16:19.063Z,74.37
2019-06-15T06:17:19.031Z,74.77
2019-06-15T06:18:19.061Z,74.87
2019-06-15T06:19:19.010Z,74.27
2019-06-15T06:20:19.003Z,74.57
2019-06-15T06:21:19.060Z,74.77
2019-06-15T06:22:18.993Z,74.37
2019-06-15T06:23:18.971Z,74.87
2019-06-15T06:24:18.970Z,74.27
2019-06-15T06:25:19.045Z,74.67
2019-06-15T06:26:18.938Z,74.67
2019-06-15T06:27:18.959Z,74.13
2019-06-15T06:28:18.935Z,73.94
2019-06-15T06:29:18.909Z,73.87
2019-06-15T06:30:18.911Z,74.04
2019-06-15T06:31:18.945Z,74.57
2019-06-15T06:32:18.929Z,73.97
2019-06-15T06:33:18.857Z,73.24
2019-06-15T06:34:18.854Z,73.14
2019-06-15T06:35:18.850Z,73.54
2019-06-15T06:36:18.843Z,73.34
2019-06-15T06:37:18.884Z,73.14
2019-06-15T06:38:18.823Z,73.34
2019-06-15T06:39:18.797Z,73.74
2019-06-15T06:40:18.792Z,73.30
2019-06-15T06:41:18.787Z,73.41
2019-06-15T06:42:18.781Z,73.21
2019-06-15T06:43:18.813Z,73.30
2019-06-15T06:44:18.745Z,73.50
2019-06-15T06:45:18.737Z,73.07
2019-06-15T06:46:18.722Z,73.27
2019-06-15T06:47:18.721Z,72.47
2019-06-15T06:48:18.696Z,72.14
2019-06-15T06:49:18.759Z,73.27
2019-06-15T06:50:18.677Z,73.14
2019-06-15T06:51:18.673Z,72.44
2019-06-15T06:52:18.693Z,72.44
2019-06-15T06:53:18.656Z,72.90
2019-06-15T06:54:18.675Z,72.11
2019-06-15T06:55:18.701Z,71.31
2019-06-15T06:56:18.669Z,71.11
2019-06-15T06:57:18.634Z,71.31
2019-06-15T06:58:18.596Z,69.82
2019-06-15T06:59:18.636Z,70.62
2019-06-15T07:00:18.634Z,71.08
2019-06-15T07:01:18.559Z,70.78
2019-06-15T07:02:18.549Z,70.18
2019-06-15T07:03:18.800Z,70.25
2019-06-15T07:04:18.529Z,70.06
2019-06-15T07:05:18.537Z,70.06
2019-06-15T07:06:18.548Z,69.56
2019-06-15T07:07:18.492Z,70.06
2019-06-15T07:08:18.481Z,70.15
2019-06-15T07:09:18.472Z,70.65
2019-06-15T07:10:18.502Z,70.06
2019-06-15T07:11:18.463Z,69.46
2019-06-15T07:12:18.476Z,70.06
2019-06-15T07:13:18.443Z,69.65
2019-06-15T07:14:18.424Z,69.16
2019-06-15T07:15:18.408Z,69.76
2019-06-15T07:16:18.415Z,70.15
2019-06-15T07:17:18.411Z,70.18
2019-06-15T07:18:18.417Z,70.09
2019-06-15T07:19:18.370Z,70.75
2019-06-15T07:20:18.360Z,70.45
2019-06-15T07:21:18.395Z,70.06
2019-06-15T07:22:18.346Z,69.95
2019-06-15T07:23:18.323Z,70.25
2019-06-15T07:24:18.327Z,70.06
2019-06-15T07:25:18.307Z,70.06
2019-06-15T07:26:18.302Z,69.65
2019-06-15T07:27:18.313Z,70.35
2019-06-15T07:28:18.277Z,69.82
2019-06-15T07:29:18.259Z,69.92
2019-06-15T07:30:18.308Z,70.09
2019-06-15T07:31:18.237Z,69.29
2019-06-15T07:32:18.243Z,69.29
2019-06-15T07:33:18.216Z,69.82
2019-06-15T07:34:18.216Z,68.80
2019-06-15T07:35:18.276Z,69.39
2019-06-15T07:36:18.203Z,68.99
2019-06-15T07:37:18.290Z,68.37
2019-06-15T07:38:18.173Z,68.86
2019-06-15T07:39:18.155Z,69.65
2019-06-15T07:40:18.151Z,68.07
2019-06-15T07:41:18.129Z,68.07
2019-06-15T07:42:18.192Z,67.84
2019-06-15T07:43:18.206Z,67.74
2019-06-15T07:44:18.112Z,67.14
2019-06-15T07:45:18.093Z,65.95
2019-06-15T07:46:18.092Z,65.13
2019-06-15T07:47:18.062Z,65.23
2019-06-15T07:48:18.128Z,66.02
2019-06-15T07:49:18.042Z,65.92
2019-06-15T07:50:18.035Z,66.02
2019-06-15T07:51:18.030Z,66.62
2019-06-15T07:52:18.047Z,66.42
2019-06-15T07:53:18.001Z,65.40
2019-06-15T07:54:18.068Z,64.31
2019-06-15T07:55:17.981Z,65.20
2019-06-15T07:56:17.967Z,65.00
2019-06-15T07:57:17.967Z,64.90
2019-06-15T07:58:24.639Z,65.70
2019-06-15T07:59:19.014Z,64.78
2019-06-15T08:00:17.926Z,64.87
2019-06-15T08:01:17.953Z,64.87
2019-06-15T08:02:17.911Z,64.38
2019-06-15T08:03:17.907Z,64.48
2019-06-15T08:04:17.886Z,64.78
2019-06-15T08:05:18.034Z,64.78
2019-06-15T08:06:17.915Z,65.47
2019-06-15T08:07:17.931Z,64.35
2019-06-15T08:08:17.839Z,64.05
2019-06-15T08:09:17.831Z,64.35
2019-06-15T08:10:17.831Z,64.15
2019-06-15T08:11:17.804Z,66.03
2019-06-15T08:12:17.815Z,65.93
2019-06-15T08:13:17.843Z,64.61
2019-06-15T08:14:17.775Z,62.63
2019-06-15T08:15:17.774Z,62.14
2019-06-15T08:16:17.755Z,62.24
2019-06-15T08:17:17.798Z,61.94
2019-06-15T08:18:17.731Z,60.14
2019-06-15T08:19:17.779Z,60.17
2019-06-15T08:20:17.713Z,60.56
2019-06-15T08:21:17.708Z,60.33
2019-06-15T08:22:17.690Z,60.43
2019-06-15T08:23:17.698Z,60.43
2019-06-15T08:24:17.684Z,60.43
2019-06-15T08:25:17.680Z,60.60
2019-06-15T08:26:17.653Z,61.39
2019-06-15T08:27:17.648Z,59.81
2019-06-15T08:28:17.721Z,59.12
2019-06-15T08:29:17.612Z,58.01
2019-06-15T08:30:17.675Z,58.73
2019-06-15T08:31:17.591Z,59.29
2019-06-15T08:32:17.660Z,59.48
2019-06-15T08:33:17.634Z,59.69
2019-06-15T08:34:17.566Z,59.39
2019-06-15T08:35:17.584Z,59.69
2019-06-15T08:36:17.613Z,58.50
2019-06-15T08:37:17.531Z,59.59
2019-06-15T08:38:17.526Z,59.88
2019-06-15T08:39:17.525Z,59.29
2019-06-15T08:40:17.513Z,59.29
2019-06-15T08:41:17.513Z,59.16
2019-06-15T08:42:17.502Z,57.98
2019-06-15T08:43:17.465Z,57.29
2019-06-15T08:44:17.468Z,56.90
2019-06-15T08:45:17.443Z,56.60
2019-06-15T08:46:17.482Z,57.95
2019-06-15T08:47:17.421Z,57.36
2019-06-15T08:48:17.441Z,57.78
2019-06-15T08:49:17.399Z,55.09
2019-06-15T08:50:17.397Z,55.68
2019-06-15T08:51:17.381Z,54.90
2019-06-15T08:52:17.387Z,54.80
2019-06-15T08:53:17.359Z,55.16
2019-06-15T08:54:17.378Z,56.37
2019-06-15T08:55:17.337Z,55.56
2019-06-15T08:56:17.337Z,55.56
2019-06-15T08:57:17.359Z,55.16
2019-06-15T08:58:17.306Z,55.66
2019-06-15T08:59:17.294Z,55.95
2019-06-15T09:00:17.345Z,53.00
2019-06-15T09:01:17.279Z,53.36
2019-06-15T09:02:17.296Z,54.16
2019-06-15T09:03:17.251Z,54.84
2019-06-15T09:04:17.242Z,52.95
2019-06-15T09:05:17.269Z,51.47
2019-06-15T09:06:17.267Z,51.57
2019-06-15T09:07:17.255Z,52.45
2019-06-15T09:08:17.211Z,51.18
2019-06-15T09:09:17.188Z,51.67
2019-06-15T09:10:17.177Z,50.68
2019-06-15T09:11:17.168Z,51.37
2019-06-15T09:12:17.217Z,51.57
2019-06-15T09:13:17.167Z,51.86
2019-06-15T09:14:17.152Z,51.37
2019-06-15T09:15:17.125Z,51.97
2019-06-15T09:16:17.115Z,51.28
2019-06-15T09:17:17.104Z,50.66
2019-06-15T09:18:17.205Z,50.49
2019-06-15T09:19:17.093Z,50.95
2019-06-15T09:20:17.091Z,51.25
2019-06-15T09:21:17.070Z,50.76
2019-06-15T09:22:17.056Z,51.15
2019-06-15T09:23:17.074Z,51.05
2019-06-15T09:24:17.060Z,49.68
2019-06-15T09:25:17.096Z,48.96
2019-06-15T09:26:17.036Z,49.55
2019-06-15T09:27:17.005Z,49.35
2019-06-15T09:28:17.043Z,48.96
2019-06-15T09:29:17.907Z,44.73
2019-06-15T09:30:16.984Z,46.11
2019-06-15T09:31:16.992Z,44.83
2019-06-15T09:32:16.982Z,45.03
2019-06-15T09:33:16.937Z,44.52
2019-06-15T09:34:19.329Z,43.85
2019-06-15T09:35:16.930Z,44.22
2019-06-15T09:36:16.905Z,43.55
2019-06-15T09:37:16.980Z,43.75
2019-06-15T09:38:16.911Z,43.46
2019-06-15T09:39:17.025Z,44.24
2019-06-15T09:40:16.863Z,42.28
2019-06-15T09:41:16.861Z,42.86
2019-06-15T09:42:16.841Z,43.55
2019-06-15T09:43:16.915Z,43.46
2019-06-15T09:44:16.843Z,44.73
2019-06-15T09:45:16.814Z,45.13
2019-06-15T09:46:16.801Z,44.44
2019-06-15T09:47:16.795Z,45.52
2019-06-15T09:48:16.821Z,45.42
2019-06-15T09:49:16.795Z,46.21
2019-06-15T09:50:16.756Z,44.64
2019-06-15T09:51:16.746Z,46.41
2019-06-15T09:52:16.746Z,45.13
2019-06-15T09:53:16.739Z,45.42
2019-06-15T09:54:16.747Z,45.81
2019-06-15T09:55:16.764Z,46.01
2019-06-15T09:56:16.694Z,45.81
2019-06-15T09:57:16.683Z,45.30
2019-06-15T09:58:16.697Z,46.28
2019-06-15T09:59:25.684Z,45.89
2019-06-15T10:00:16.659Z,47.17
2019-06-15T10:01:16.676Z,45.70
2019-06-15T10:02:16.631Z,45.89
2019-06-15T10:03:16.617Z,45.87
2019-06-15T10:04:16.684Z,46.09
2019-06-15T10:05:16.624Z,45.97
2019-06-15T10:06:16.590Z,46.26
2019-06-15T10:07:16.603Z,45.77
2019-06-15T10:08:16.672Z,46.46
2019-06-15T10:09:16.559Z,47.05
2019-06-15T10:10:16.543Z,46.66
2019-06-15T10:11:16.556Z,47.25
2019-06-15T10:12:16.572Z,46.26
2019-06-15T10:13:16.609Z,47.34
2019-06-15T10:14:16.506Z,47.32
2019-06-15T10:15:16.491Z,46.66
2019-06-15T10:16:16.479Z,46.85
2019-06-15T10:17:16.470Z,46.06
2019-06-15T10:18:16.477Z,46.66
2019-06-15T10:19:16.494Z,46.83
2019-06-15T10:20:16.437Z,46.95
2019-06-15T10:21:16.427Z,46.36
2019-06-15T10:22:16.418Z,47.05
2019-06-15T10:23:16.445Z,46.46
2019-06-15T10:24:16.407Z,46.93
2019-06-15T10:25:16.482Z,46.66
2019-06-15T10:26:16.376Z,46.56
2019-06-15T10:27:16.363Z,45.97
2019-06-15T10:28:16.423Z,46.46
2019-06-15T10:29:16.345Z,45.87
2019-06-15T10:30:16.345Z,46.36
2019-06-15T10:31:16.371Z,46.26
2019-06-15T10:32:16.310Z,47.27
2019-06-15T10:33:16.319Z,46.68
2019-06-15T10:34:16.322Z,46.58
2019-06-15T10:35:16.277Z,47.76
2019-06-15T10:36:16.280Z,49.13
2019-06-15T10:37:16.288Z,47.76
2019-06-15T10:38:16.246Z,46.88
2019-06-15T10:39:16.289Z,47.76
2019-06-15T10:40:16.233Z,47.96
2019-06-15T10:41:16.229Z,48.05
2019-06-15T10:42:16.206Z,47.86
2019-06-15T10:43:16.284Z,47.44
2019-06-15T10:44:16.219Z,47.54
2019-06-15T10:45:16.190Z,47.15
2019-06-15T10:46:16.241Z,47.15
2019-06-15T10:47:16.149Z,48.33
2019-06-15T10:48:16.149Z,45.57
2019-06-15T10:49:16.131Z,46.17
2019-06-15T10:50:16.172Z,45.87
2019-06-15T10:51:16.124Z,46.06
2019-06-15T10:52:16.132Z,45.87
2019-06-15T10:53:16.088Z,46.56
2019-06-15T10:54:16.085Z,45.87
2019-06-15T10:55:16.068Z,45.18
2019-06-15T10:56:16.073Z,44.30
2019-06-15T10:57:16.091Z,44.40
2019-06-15T10:58:16.050Z,44.20
2019-06-15T10:59:16.026Z,44.49
2019-06-15T11:00:16.026Z,44.49
2019-06-15T11:01:16.044Z,45.28
2019-06-15T11:02:15.991Z,44.01
2019-06-15T11:03:16.047Z,44.20
2019-06-15T11:04:15.987Z,44.30
2019-06-15T11:05:15.966Z,44.59
2019-06-15T11:06:15.967Z,44.49
2019-06-15T11:07:15.969Z,44.10
2019-06-15T11:08:15.928Z,44.12
2019-06-15T11:09:15.983Z,44.52
2019-06-15T11:10:15.906Z,45.42
2019-06-15T11:11:15.902Z,46.48
2019-06-15T11:12:15.938Z,46.28
2019-06-15T11:13:15.873Z,46.78
2019-06-15T11:14:15.863Z,45.99
2019-06-15T11:15:15.875Z,46.78
2019-06-15T11:16:15.842Z,47.17
2019-06-15T11:17:15.841Z,47.96
2019-06-15T11:18:15.868Z,48.55
2019-06-15T11:19:15.838Z,46.68
2019-06-15T11:20:15.840Z,46.58
2019-06-15T11:21:15.869Z,46.09
2019-06-15T11:22:15.780Z,46.48
2019-06-15T11:23:15.813Z,46.28
2019-06-15T11:24:15.772Z,46.19
2019-06-15T11:25:15.749Z,46.90
2019-06-15T11:26:15.735Z,45.92
2019-06-15T11:27:15.797Z,46.31
2019-06-15T11:28:15.717Z,46.21
2019-06-15T11:29:15.722Z,44.66
2019-06-15T11:30:15.725Z,46.92
2019-06-15T11:31:15.681Z,46.15
2019-06-15T11:32:15.699Z,46.94
2019-06-15T11:33:15.683Z,46.35
2019-06-15T11:34:15.710Z,46.25
2019-06-15T11:35:15.654Z,45.86
2019-06-15T11:36:15.631Z,46.45
2019-06-15T11:37:15.619Z,46.15
2019-06-15T11:38:15.607Z,46.65
2019-06-15T11:39:15.699Z,46.06
2019-06-15T11:40:15.592Z,46.37
2019-06-15T11:41:15.583Z,44.90
2019-06-15T11:42:15.593Z,46.18
2019-06-15T11:43:15.555Z,44.51
2019-06-15T11:44:15.549Z,45.96
2019-06-15T11:45:16.303Z,45.37
2019-06-15T11:46:15.526Z,44.19
2019-06-15T11:47:15.524Z,44.68
2019-06-15T11:48:15.506Z,43.99
2019-06-15T11:49:15.492Z,43.99
2019-06-15T11:50:15.538Z,44.48
2019-06-15T11:51:15.484Z,43.79
2019-06-15T11:52:15.826Z,45.27
2019-06-15T11:53:17.313Z,43.20
2019-06-15T11:54:15.440Z,44.98
2019-06-15T11:55:15.588Z,43.70
2019-06-15T11:56:15.417Z,43.23
2019-06-15T11:57:15.451Z,44.31
2019-06-15T11:58:15.433Z,44.80
2019-06-15T11:59:15.435Z,45.31
2019-06-15T12:00:30.450Z,45.31
2019-06-15T12:01:18.900Z,44.53
2019-06-15T12:02:15.357Z,44.94
2019-06-15T12:03:15.366Z,43.98
2019-06-15T12:04:15.338Z,44.87
2019-06-15T12:05:15.369Z,44.76
2019-06-15T12:06:15.381Z,45.26
2019-06-15T12:07:15.303Z,44.76
2019-06-15T12:08:15.290Z,45.16
2019-06-15T12:09:15.282Z,44.67
2019-06-15T12:10:15.278Z,44.47
2019-06-15T12:11:15.382Z,45.75
2019-06-15T12:12:15.250Z,46.03
2019-06-15T12:13:15.238Z,45.34
2019-06-15T12:14:15.236Z,46.79
2019-06-15T12:15:15.241Z,44.92
2019-06-15T12:16:15.225Z,45.88
2019-06-15T12:17:15.230Z,44.78
2019-06-15T12:18:15.189Z,44.48
2019-06-15T12:19:15.258Z,44.68
2019-06-15T12:20:15.384Z,44.58
2019-06-15T12:21:15.197Z,44.98
2019-06-15T12:22:15.169Z,44.09
2019-06-15T12:23:15.357Z,43.50
2019-06-15T12:24:15.121Z,45.37
2019-06-15T12:25:15.188Z,45.09
2019-06-15T12:26:15.104Z,44.21
2019-06-15T12:27:15.112Z,45.09
2019-06-15T12:28:15.089Z,44.90
2019-06-15T12:29:15.157Z,45.59
2019-06-15T12:30:15.061Z,44.21
2019-06-15T12:31:15.085Z,43.32
2019-06-15T12:32:15.054Z,44.70
2019-06-15T12:33:15.036Z,43.71
2019-06-15T12:34:15.027Z,43.42
2019-06-15T12:35:15.125Z,43.32
2019-06-15T12:36:19.149Z,45.09
2019-06-15T12:37:14.988Z,45.27
2019-06-15T12:38:14.983Z,43.89
2019-06-15T12:39:14.970Z,43.89
2019-06-15T12:40:14.983Z,44.80
2019-06-15T12:41:14.961Z,45.76
2019-06-15T12:42:15.138Z,45.56
2019-06-15T12:43:14.925Z,44.09
2019-06-15T12:44:14.950Z,44.48
2019-06-15T12:45:14.915Z,43.30
2019-06-15T12:46:14.911Z,42.71
2019-06-15T12:47:14.918Z,43.99
2019-06-15T12:48:14.869Z,44.70
2019-06-15T12:49:14.864Z,43.89
2019-06-15T12:50:14.896Z,43.89
2019-06-15T12:51:14.857Z,43.62
2019-06-15T12:52:14.839Z,44.11